createdAt,value
2019-01-24T00:00:42.773Z,79.17
2019-01-24T00:03:11.786Z,81.70
2019-01-24T00:05:40.697Z,88.23
2019-01-24T00:08:09.675Z,75.80
2019-01-24T00:10:38.905Z,85.50
2019-01-24T00:13:07.910Z,84.73
2019-01-24T00:15:37.192Z,79.87
2019-01-24T00:18:06.196Z,75.80
2019-01-24T00:20:35.446Z,76.37
2019-01-24T00:23:04.809Z,80.43
2019-01-24T00:25:34.149Z,77.30
2019-01-24T00:28:03.629Z,70.07
2019-01-24T00:30:32.986Z,69.80
2019-01-24T00:33:02.320Z,73.20
2019-01-24T00:35:31.321Z,77.20
2019-01-24T00:38:00.260Z,76.97
2019-01-24T00:40:29.202Z,74.90
2019-01-24T00:42:58.429Z,71.67
2019-01-24T00:45:27.798Z,62.27
2019-01-24T00:47:57.137Z,70.87
2019-01-24T00:50:26.464Z,69.30
2019-01-24T00:52:55.848Z,74.33
2019-01-24T00:55:25.177Z,68.23
2019-01-24T00:57:54.519Z,64.50
2019-01-24T01:00:25.617Z,61.93
2019-01-24T01:02:54.635Z,57.43
2019-01-24T01:05:23.943Z,59.30
2019-01-24T01:07:53.314Z,64.03
2019-01-24T01:10:22.654Z,55.07
2019-01-24T01:12:51.989Z,64.43
2019-01-24T01:15:21.426Z,59.77
2019-01-24T01:17:50.766Z,54.30
2019-01-24T01:20:21.649Z,58.67
2019-01-24T01:22:51.088Z,60.97
2019-01-24T01:25:20.174Z,58.00
2019-01-24T01:27:49.158Z,59.87
2019-01-24T01:30:20.577Z,63.87
2019-01-24T01:32:49.717Z,61.80
2019-01-24T01:35:19.033Z,60.27
2019-01-24T01:37:48.066Z,58.87
2019-01-24T01:40:17.751Z,57.17
2019-01-24T01:42:46.831Z,62.67
2019-01-24T01:45:17.314Z,61.67
2019-01-24T01:47:46.565Z,61.63
2019-01-24T01:50:22.584Z,56.37
2019-01-24T01:52:51.497Z,58.80
2019-01-24T01:55:20.821Z,59.13
2019-01-24T01:57:49.856Z,57.13
2019-01-24T02:00:19.638Z,53.97
2019-01-24T02:02:48.626Z,58.20
2019-01-24T02:05:17.637Z,58.10
2019-01-24T02:07:47.049Z,57.90
2019-01-24T02:10:18.637Z,53.07
2019-01-24T02:12:48.174Z,52.87
2019-01-24T02:15:18.350Z,58.37
2019-01-24T02:17:47.853Z,56.27
2019-01-24T02:20:21.790Z,52.57
2019-01-24T02:22:50.868Z,56.10
2019-01-24T02:25:20.199Z,57.90
2019-01-24T02:27:49.562Z,56.20
2019-01-24T02:30:21.723Z,57.83
2019-01-24T02:32:51.298Z,50.77
2019-01-24T02:35:20.662Z,47.03
2019-01-24T02:37:50.070Z,53.13
2019-01-24T02:40:19.544Z,59.33
2019-01-24T02:42:48.982Z,48.53
2019-01-24T02:45:20.926Z,45.23
2019-01-24T02:47:50.261Z,52.50
2019-01-24T02:50:21.369Z,55.43
2019-01-24T02:52:50.712Z,55.07
2019-01-24T02:55:20.321Z,53.73
2019-01-24T02:57:49.685Z,52.20
2019-01-24T03:00:20.234Z,49.67
2019-01-24T03:02:49.152Z,47.37
2019-01-24T03:05:21.520Z,53.03
2019-01-24T03:07:51.170Z,56.97
2019-01-24T03:10:20.561Z,62.17
2019-01-24T03:12:50.434Z,60.37
2019-01-24T03:15:21.562Z,50.77
2019-01-24T03:17:50.961Z,56.40
2019-01-24T03:20:20.597Z,39.10
2019-01-24T03:22:50.074Z,53.87
2019-01-24T03:25:19.656Z,54.80
2019-01-24T03:27:49.009Z,55.60
2019-01-24T03:30:20.408Z,55.80
2019-01-24T03:32:49.883Z,52.00
2019-01-24T03:35:21.920Z,53.83
2019-01-24T03:37:51.340Z,54.57
2019-01-24T03:40:20.803Z,56.90
2019-01-24T03:42:50.246Z,59.10
2019-01-24T03:45:19.651Z,58.70
2019-01-24T03:47:49.054Z,53.77
2019-01-24T03:50:20.165Z,58.33
2019-01-24T03:52:50.247Z,48.60
2019-01-24T03:55:20.617Z,54.67
2019-01-24T03:57:50.118Z,56.07
2019-01-24T04:00:23.848Z,54.83
2019-01-24T04:02:53.254Z,48.50
2019-01-24T04:05:22.906Z,52.43
2019-01-24T04:07:52.387Z,46.00
2019-01-24T04:10:22.762Z,55.03
2019-01-24T04:12:52.131Z,50.80
2019-01-24T04:15:23.608Z,59.43
2019-01-24T04:17:53.016Z,53.07
2019-01-24T04:20:22.465Z,48.23
2019-01-24T04:22:51.868Z,57.07
2019-01-24T04:25:21.216Z,44.00
2019-01-24T04:27:50.596Z,57.30
2019-01-24T04:30:21.466Z,46.97
2019-01-24T04:32:50.884Z,44.77
2019-01-24T04:35:20.435Z,46.23
2019-01-24T04:37:49.939Z,44.83
2019-01-24T04:40:20.222Z,50.47
2019-01-24T04:42:49.599Z,48.80
2019-01-24T04:45:19.173Z,50.70
2019-01-24T04:47:48.958Z,49.90
2019-01-24T04:50:19.173Z,45.13
2019-01-24T04:52:48.650Z,48.33
2019-01-24T04:55:19.234Z,48.33
2019-01-24T04:57:48.826Z,46.50
2019-01-24T05:00:20.538Z,46.73
2019-01-24T05:02:49.986Z,49.77
2019-01-24T05:05:23.248Z,44.37
2019-01-24T05:07:50.530Z,46.90
2019-01-24T05:10:19.874Z,48.77
2019-01-24T05:12:49.246Z,47.03
2019-01-24T05:15:19.646Z,40.33
2019-01-24T05:17:49.055Z,41.47
2019-01-24T05:20:18.454Z,49.23
2019-01-24T05:22:47.861Z,48.33
2019-01-24T05:25:17.624Z,49.60
2019-01-24T05:27:47.106Z,51.47
2019-01-24T05:30:21.811Z,47.00
2019-01-24T05:32:51.143Z,51.40
2019-01-24T05:35:20.659Z,53.37
2019-01-24T05:37:50.021Z,47.43
2019-01-24T05:40:19.368Z,54.77
2019-01-24T05:42:48.728Z,47.37
2019-01-24T05:45:18.175Z,45.73
2019-01-24T05:47:47.562Z,50.20
2019-01-24T05:50:16.920Z,52.67
2019-01-24T05:52:46.270Z,56.03
2019-01-24T05:55:15.681Z,50.50
2019-01-24T05:57:45.058Z,53.80
2019-01-24T06:00:18.837Z,51.13
2019-01-24T06:02:48.177Z,55.33
2019-01-24T06:05:17.690Z,49.03
2019-01-24T06:07:47.028Z,47.90
2019-01-24T06:10:17.805Z,46.43
2019-01-24T06:12:52.108Z,51.57
2019-01-24T06:15:21.441Z,54.17
2019-01-24T06:17:50.782Z,58.13
2019-01-24T06:20:19.815Z,47.80
2019-01-24T06:22:49.058Z,48.43
2019-01-24T06:25:18.394Z,48.60
2019-01-24T06:27:47.772Z,55.23
2019-01-24T06:30:19.037Z,54.37
2019-01-24T06:32:48.382Z,52.27
2019-01-24T06:35:17.745Z,48.70
2019-01-24T06:37:47.350Z,50.10
2019-01-24T06:40:16.753Z,53.63
2019-01-24T06:42:46.118Z,49.03
2019-01-24T06:45:22.615Z,52.80
2019-01-24T06:47:51.973Z,50.40
2019-01-24T06:50:21.321Z,49.63
2019-01-24T06:52:50.722Z,50.53
2019-01-24T06:55:27.155Z,52.80
2019-01-24T06:57:56.620Z,57.90
2019-01-24T07:00:26.025Z,51.00
2019-01-24T07:02:55.437Z,53.17
2019-01-24T07:05:24.817Z,51.83
2019-01-24T07:07:54.149Z,50.23
2019-01-24T07:10:24.461Z,52.83
2019-01-24T07:12:53.801Z,59.48
2019-01-24T07:15:23.881Z,52.20
2019-01-24T07:17:53.255Z,51.23
2019-01-24T07:20:22.597Z,50.40
2019-01-24T07:22:51.937Z,52.53
2019-01-24T07:25:23.637Z,56.10
2019-01-24T07:27:52.985Z,50.20
2019-01-24T07:30:22.662Z,51.70
2019-01-24T07:32:52.138Z,57.67
2019-01-24T07:35:21.645Z,58.87
2019-01-24T07:37:50.985Z,54.30
2019-01-24T07:40:20.833Z,58.80
2019-01-24T07:42:50.441Z,55.70
2019-01-24T07:45:34.354Z,53.33
2019-01-24T07:48:03.901Z,53.10
2019-01-24T07:50:33.242Z,55.00
2019-01-24T07:53:02.609Z,54.73
2019-01-24T07:55:31.950Z,51.93
2019-01-24T07:58:01.294Z,52.27
2019-01-24T08:00:30.988Z,57.73
2019-01-24T08:03:00.338Z,57.80
2019-01-24T08:05:30.921Z,57.80
2019-01-24T08:08:00.299Z,53.27
2019-01-24T08:10:29.624Z,55.13
2019-01-24T08:12:58.973Z,57.90
2019-01-24T08:15:29.202Z,58.37
2019-01-24T08:17:58.685Z,55.43
2019-01-24T08:20:28.565Z,59.80
2019-01-24T08:22:57.927Z,53.57
2019-01-24T08:25:27.329Z,52.77
2019-01-24T08:28:16.053Z,60.63
2019-01-24T08:30:45.382Z,52.97
2019-01-24T08:33:14.785Z,62.10
2019-01-24T08:35:43.813Z,55.20
2019-01-24T08:38:13.070Z,57.53
2019-01-24T08:40:42.412Z,54.17
2019-01-24T08:43:11.473Z,56.60
2019-01-24T08:45:40.717Z,54.03
2019-01-24T08:48:10.070Z,53.47
2019-01-24T08:50:39.443Z,57.13
2019-01-24T08:53:08.778Z,56.97
2019-01-24T08:55:38.258Z,58.70
2019-01-24T08:58:07.768Z,54.17
2019-01-24T09:00:37.108Z,61.63
2019-01-24T09:03:13.205Z,53.70
2019-01-24T09:05:42.212Z,57.30
2019-01-24T09:08:11.634Z,54.60
2019-01-24T09:10:41.258Z,53.50
2019-01-24T09:13:11.966Z,54.90
2019-01-24T09:16:01.569Z,51.80
2019-01-24T09:18:30.489Z,50.90
2019-01-24T09:20:59.742Z,57.10
2019-01-24T09:23:29.109Z,60.90
2019-01-24T09:25:58.450Z,57.13
2019-01-24T09:28:27.549Z,56.87
2019-01-24T09:30:56.493Z,56.43
2019-01-24T09:33:25.745Z,54.93
2019-01-24T09:35:55.137Z,58.83
2019-01-24T09:38:24.174Z,56.23
2019-01-24T09:40:53.087Z,58.23
2019-01-24T09:43:22.001Z,63.37
2019-01-24T09:45:51.283Z,68.83
2019-01-24T09:48:20.613Z,59.83
2019-01-24T09:50:49.619Z,58.73
2019-01-24T09:53:18.889Z,59.00
2019-01-24T09:55:47.901Z,54.47
2019-01-24T09:58:17.143Z,62.60
2019-01-24T10:00:46.565Z,55.90
2019-01-24T10:03:15.567Z,54.20
2019-01-24T10:05:44.485Z,54.27
2019-01-24T10:08:13.418Z,51.97
2019-01-24T10:10:42.421Z,48.70
2019-01-24T10:13:11.337Z,62.77
2019-01-24T10:15:40.272Z,54.40
2019-01-24T10:18:09.195Z,52.37
2019-01-24T10:20:38.441Z,53.47
2019-01-24T10:23:07.473Z,48.43
2019-01-24T10:25:37.057Z,47.10
2019-01-24T10:28:06.165Z,50.33
2019-01-24T10:30:42.171Z,53.17
2019-01-24T10:33:06.337Z,58.43
2019-01-24T10:35:35.703Z,48.93
2019-01-24T10:38:05.518Z,54.10
2019-01-24T10:40:34.930Z,52.70
2019-01-24T10:43:04.102Z,51.57
2019-01-24T10:45:33.385Z,48.33
2019-01-24T10:48:02.449Z,54.03
2019-01-24T10:50:31.365Z,54.47
2019-01-24T10:53:00.636Z,53.70
2019-01-24T10:55:29.709Z,49.07
2019-01-24T10:58:00.289Z,45.53
2019-01-24T11:00:32.574Z,47.73
2019-01-24T11:03:02.339Z,48.90
2019-01-24T11:05:31.416Z,49.13
2019-01-24T11:08:00.702Z,55.53
2019-01-24T11:10:29.701Z,51.30
2019-01-24T11:12:58.621Z,52.47
2019-01-24T11:15:27.570Z,54.37
2019-01-24T11:17:56.809Z,49.73
2019-01-24T11:20:25.821Z,56.40
2019-01-24T11:22:55.104Z,78.47
2019-01-24T11:25:24.993Z,73.37
2019-01-24T11:27:53.906Z,57.37
2019-01-24T11:30:25.805Z,74.87
2019-01-24T11:32:55.673Z,66.63
2019-01-24T11:35:26.505Z,73.70
2019-01-24T11:37:55.793Z,59.27
2019-01-24T11:40:25.295Z,59.67
2019-01-24T11:42:54.711Z,49.00
2019-01-24T11:45:26.718Z,50.83
2019-01-24T11:47:56.061Z,49.80
2019-01-24T11:50:25.174Z,54.20
2019-01-24T11:52:54.105Z,52.33
2019-01-24T11:55:23.353Z,47.70
2019-01-24T11:57:52.684Z,45.97
2019-01-24T12:00:23.652Z,43.10
2019-01-24T12:02:52.993Z,47.60
2019-01-24T12:05:21.995Z,49.97
2019-01-24T12:07:51.285Z,78.20
2019-01-24T12:10:23.053Z,57.17
2019-01-24T12:12:52.061Z,70.90
2019-01-24T12:15:23.773Z,77.00
2019-01-24T12:17:53.176Z,63.63
2019-01-24T12:20:24.659Z,56.70
2019-01-24T12:22:54.017Z,51.17
2019-01-24T12:25:23.700Z,46.43
2019-01-24T12:27:53.056Z,49.67
2019-01-24T12:30:24.881Z,52.97
2019-01-24T12:32:54.281Z,50.53
2019-01-24T12:35:23.642Z,47.70
2019-01-24T12:37:52.997Z,55.70
2019-01-24T12:40:22.438Z,57.33
2019-01-24T12:42:51.743Z,51.33
2019-01-24T12:45:31.969Z,52.80
2019-01-24T12:48:01.309Z,49.97
2019-01-24T12:50:30.650Z,56.20
2019-01-24T12:52:59.713Z,56.53
2019-01-24T12:55:28.949Z,54.33
2019-01-24T12:57:58.288Z,52.27
2019-01-24T13:00:32.802Z,51.60
2019-01-24T13:03:01.823Z,55.23
2019-01-24T13:05:31.073Z,53.60
2019-01-24T13:08:00.444Z,48.13
2019-01-24T13:10:29.917Z,50.57
2019-01-24T13:12:59.249Z,52.53
2019-01-24T13:15:29.461Z,50.77
2019-01-24T13:17:58.785Z,51.13
2019-01-24T13:20:48.533Z,52.43
2019-01-24T13:23:17.930Z,47.17
2019-01-24T13:25:47.270Z,48.23
2019-01-24T13:28:16.640Z,48.13
2019-01-24T13:30:45.976Z,49.23
2019-01-24T13:33:15.308Z,47.03
2019-01-24T13:35:44.674Z,50.17
2019-01-24T13:38:14.009Z,57.07
2019-01-24T13:40:43.363Z,111.13
2019-01-24T13:43:12.733Z,107.00
2019-01-24T13:45:42.156Z,68.77
2019-01-24T13:48:11.497Z,61.20
2019-01-24T13:51:00.201Z,70.27
2019-01-24T13:53:29.538Z,47.97
2019-01-24T13:55:58.878Z,51.63
2019-01-24T13:58:28.241Z,57.27
2019-01-24T14:00:57.581Z,58.57
2019-01-24T14:03:27.090Z,50.47
2019-01-24T14:05:57.033Z,48.87
2019-01-24T14:08:25.953Z,53.13
2019-01-24T14:10:55.201Z,53.33
2019-01-24T14:13:43.903Z,49.80
2019-01-24T14:16:25.459Z,48.90
2019-01-24T14:18:55.006Z,47.80
2019-01-24T14:21:24.351Z,50.90
2019-01-24T14:23:53.697Z,49.53
2019-01-24T14:26:22.729Z,43.53
2019-01-24T14:28:51.681Z,55.57
2019-01-24T14:31:20.925Z,70.80
2019-01-24T14:33:50.298Z,102.73
2019-01-24T14:36:25.255Z,113.10
2019-01-24T14:38:50.392Z,82.97
2019-01-24T14:41:19.673Z,101.37
2019-01-24T14:43:49.014Z,53.47
2019-01-24T14:46:18.018Z,61.90
2019-01-24T14:48:47.296Z,69.33
2019-01-24T14:51:16.643Z,134.50
2019-01-24T14:53:45.641Z,47.97
2019-01-24T14:56:14.914Z,46.43
2019-01-24T14:58:43.913Z,46.47
2019-01-24T15:01:13.161Z,45.30
2019-01-24T15:03:42.203Z,40.57
2019-01-24T15:06:11.449Z,51.43
2019-01-24T15:08:40.854Z,47.27
2019-01-24T15:11:09.886Z,43.07
2019-01-24T15:13:38.798Z,41.43
2019-01-24T15:16:07.887Z,38.97
2019-01-24T15:18:37.238Z,42.57
2019-01-24T15:21:06.314Z,43.00
2019-01-24T15:23:35.557Z,41.00
2019-01-24T15:26:05.157Z,42.47
2019-01-24T15:28:34.498Z,41.07
2019-01-24T15:31:03.693Z,44.83
2019-01-24T15:33:32.650Z,46.17
2019-01-24T15:36:01.562Z,44.60
2019-01-24T15:38:30.469Z,45.03
2019-01-24T15:40:59.422Z,43.10
2019-01-24T15:43:28.675Z,42.17
2019-01-24T15:45:57.674Z,41.07
2019-01-24T15:48:45.966Z,42.40
2019-01-24T15:51:15.219Z,42.80
2019-01-24T15:53:44.561Z,44.73
2019-01-24T15:56:13.593Z,42.27
2019-01-24T15:58:42.506Z,46.00
2019-01-24T16:01:11.427Z,40.50
2019-01-24T16:03:40.373Z,44.63
2019-01-24T16:06:09.286Z,40.33
2019-01-24T16:08:38.210Z,40.57
2019-01-24T16:11:07.155Z,46.97
2019-01-24T16:13:36.070Z,37.40
2019-01-24T16:16:05.971Z,36.90
2019-01-24T16:18:35.341Z,38.27
2019-01-24T16:21:04.409Z,39.10
2019-01-24T16:23:33.356Z,38.40
2019-01-24T16:26:02.646Z,39.23
2019-01-24T16:28:31.643Z,45.40
2019-01-24T16:31:00.895Z,40.83
2019-01-24T16:33:30.266Z,37.37
2019-01-24T16:35:59.606Z,37.57
2019-01-24T16:38:28.951Z,38.90
2019-01-24T16:40:59.305Z,36.93
2019-01-24T16:43:28.826Z,40.13
2019-01-24T16:45:58.165Z,44.53
2019-01-24T16:48:27.552Z,43.90
2019-01-24T16:50:56.881Z,38.97
2019-01-24T16:53:26.212Z,44.50
2019-01-24T16:55:55.583Z,38.77
2019-01-24T16:58:24.916Z,38.67
2019-01-24T17:00:54.394Z,38.53
2019-01-24T17:03:28.734Z,40.33
2019-01-24T17:05:58.071Z,41.17
2019-01-24T17:08:27.410Z,52.63
2019-01-24T17:10:56.778Z,46.70
2019-01-24T17:13:26.113Z,45.17
2019-01-24T17:15:55.450Z,48.00
2019-01-24T17:18:24.817Z,43.97
2019-01-24T17:20:54.226Z,44.03
2019-01-24T17:23:23.612Z,51.90
2019-01-24T17:25:52.965Z,43.47
2019-01-24T17:28:22.297Z,43.80
2019-01-24T17:30:51.638Z,45.00
2019-01-24T17:33:21.009Z,43.93
2019-01-24T17:35:50.345Z,52.10
2019-01-24T17:38:23.706Z,54.77
2019-01-24T17:40:50.738Z,59.53
2019-01-24T17:43:20.077Z,49.30
2019-01-24T17:45:49.417Z,48.70
2019-01-24T17:48:18.786Z,42.77
2019-01-24T17:50:48.114Z,49.07
2019-01-24T17:53:17.449Z,49.03
2019-01-24T17:55:46.818Z,44.93
2019-01-24T17:58:16.162Z,46.10
2019-01-24T18:00:47.146Z,43.93
2019-01-24T18:03:16.522Z,45.30
2019-01-24T18:05:46.025Z,37.33
2019-01-24T18:08:15.360Z,43.43
2019-01-24T18:10:44.725Z,43.37
2019-01-24T18:13:14.136Z,44.23
2019-01-24T18:15:43.471Z,49.37
2019-01-24T18:18:13.585Z,45.60
2019-01-24T18:20:42.913Z,45.60
2019-01-24T18:23:12.643Z,45.77
2019-01-24T18:25:42.059Z,45.27
2019-01-24T18:28:11.857Z,45.47
2019-01-24T18:30:41.261Z,42.73
2019-01-24T18:33:30.990Z,40.07
2019-01-24T18:36:00.382Z,37.37
2019-01-24T18:38:29.785Z,40.87
2019-01-24T18:40:59.222Z,45.07
2019-01-24T18:43:28.626Z,39.77
2019-01-24T18:45:57.959Z,34.80
2019-01-24T18:48:27.316Z,44.10
2019-01-24T18:50:56.657Z,38.13
2019-01-24T18:53:26.008Z,39.77
2019-01-24T18:55:55.442Z,42.27
2019-01-24T18:58:24.777Z,40.93
2019-01-24T19:00:54.127Z,44.17
2019-01-24T19:03:23.494Z,40.83
2019-01-24T19:05:52.828Z,39.10
2019-01-24T19:08:22.165Z,42.37
2019-01-24T19:10:51.529Z,41.00
2019-01-24T19:13:20.874Z,41.60
2019-01-24T19:15:50.289Z,41.67
2019-01-24T19:18:19.734Z,37.73
2019-01-24T19:20:49.197Z,43.33
2019-01-24T19:23:18.534Z,41.13
2019-01-24T19:25:48.023Z,41.77
2019-01-24T19:28:17.693Z,41.40
2019-01-24T19:30:47.450Z,38.83
2019-01-24T19:33:17.286Z,38.37
2019-01-24T19:35:47.191Z,37.33
2019-01-24T19:38:16.965Z,40.70
2019-01-24T19:40:46.826Z,36.20
2019-01-24T19:43:16.472Z,39.97
2019-01-24T19:45:46.008Z,41.90
2019-01-24T19:48:15.428Z,43.33
2019-01-24T19:50:44.758Z,47.17
2019-01-24T19:53:14.102Z,42.33
2019-01-24T19:55:43.466Z,43.33
2019-01-24T19:58:12.865Z,43.40
2019-01-24T20:00:42.201Z,44.73
2019-01-24T20:03:11.575Z,41.63
2019-01-24T20:05:40.914Z,45.37
2019-01-24T20:08:10.242Z,45.50
2019-01-24T20:10:39.613Z,44.50
2019-01-24T20:13:08.947Z,46.90
2019-01-24T20:15:38.281Z,67.13
2019-01-24T20:18:07.852Z,47.37
2019-01-24T20:20:37.656Z,54.13
2019-01-24T20:23:07.706Z,54.70
2019-01-24T20:25:37.077Z,56.00
2019-01-24T20:28:06.483Z,47.53
2019-01-24T20:30:35.949Z,44.20
2019-01-24T20:33:05.697Z,40.93
2019-01-24T20:35:41.245Z,43.90
2019-01-24T20:38:11.546Z,46.73
2019-01-24T20:40:40.949Z,44.47
2019-01-24T20:43:12.127Z,45.30
2019-01-24T20:45:41.487Z,45.00
2019-01-24T20:48:10.822Z,45.17
2019-01-24T20:50:40.221Z,43.87
2019-01-24T20:53:09.598Z,51.53
2019-01-24T20:55:38.935Z,49.07
2019-01-24T20:58:08.342Z,45.47
2019-01-24T21:00:37.783Z,38.60
2019-01-24T21:03:07.178Z,44.03
2019-01-24T21:05:36.517Z,37.63
2019-01-24T21:08:06.230Z,34.43
2019-01-24T21:10:35.561Z,43.20
2019-01-24T21:13:05.539Z,41.10
2019-01-24T21:15:34.907Z,47.17
2019-01-24T21:18:04.496Z,44.50
2019-01-24T21:20:33.899Z,52.50
2019-01-24T21:23:03.276Z,51.03
2019-01-24T21:25:32.679Z,44.13
2019-01-24T21:28:02.013Z,47.63
2019-01-24T21:30:36.013Z,39.07
2019-01-24T21:33:06.700Z,40.70
2019-01-24T21:35:36.032Z,41.97
2019-01-24T21:38:06.440Z,42.23
2019-01-24T21:40:35.774Z,40.67
2019-01-24T21:43:05.355Z,42.63
2019-01-24T21:45:36.868Z,42.13
2019-01-24T21:48:07.553Z,40.93
2019-01-24T21:50:36.906Z,40.80
2019-01-24T21:53:06.676Z,45.77
2019-01-24T21:55:36.186Z,40.47
2019-01-24T21:58:06.461Z,43.97
2019-01-24T22:00:35.966Z,44.03
2019-01-24T22:03:05.705Z,40.07
2019-01-24T22:05:35.155Z,39.90
2019-01-24T22:08:04.890Z,37.80
2019-01-24T22:10:34.223Z,48.70
2019-01-24T22:13:03.731Z,48.00
2019-01-24T22:15:33.097Z,43.47
2019-01-24T22:18:02.433Z,44.97
2019-01-24T22:20:31.768Z,48.43
2019-01-24T22:23:01.138Z,44.57
2019-01-24T22:25:32.618Z,44.53
2019-01-24T22:28:01.950Z,48.30
2019-01-24T22:30:43.858Z,42.53
2019-01-24T22:33:13.267Z,41.37
2019-01-24T22:35:42.607Z,36.40
2019-01-24T22:38:12.033Z,35.67
2019-01-24T22:40:41.373Z,32.57
2019-01-24T22:43:10.705Z,36.17
2019-01-24T22:45:40.144Z,33.53
2019-01-24T22:48:09.476Z,33.03
2019-01-24T22:50:38.816Z,33.23
2019-01-24T22:53:08.173Z,38.07
2019-01-24T22:55:37.509Z,32.57
2019-01-24T22:58:07.592Z,32.90
2019-01-24T23:00:47.269Z,37.10
2019-01-24T23:03:22.901Z,39.00
2019-01-24T23:05:52.441Z,36.37
2019-01-24T23:08:21.877Z,38.43
2019-01-24T23:10:51.243Z,34.90
2019-01-24T23:13:20.637Z,30.50
2019-01-24T23:15:50.001Z,33.70
2019-01-24T23:18:19.342Z,34.20
2019-01-24T23:20:48.669Z,30.47
2019-01-24T23:23:18.029Z,34.30
2019-01-24T23:25:47.366Z,34.67
2019-01-24T23:28:16.699Z,32.67
2019-01-24T23:30:46.067Z,30.93
2019-01-24T23:33:15.394Z,33.90
2019-01-24T23:35:44.801Z,32.63
2019-01-24T23:38:14.166Z,36.07
2019-01-24T23:40:43.497Z,35.60
2019-01-24T23:43:12.840Z,37.70
2019-01-24T23:45:42.232Z,38.47
2019-01-24T23:48:11.605Z,36.43
2019-01-24T23:50:40.941Z,35.37
2019-01-24T23:53:10.310Z,36.27
2019-01-24T23:55:39.643Z,32.03
2019-01-24T23:58:08.973Z,36.67
